Time;durP1;ratioP1;P1;durP2;ratioP2;P2;SDS_P1;SDS_P2;PMS_P1;PMS_P2;Temp;Humidity;BMP_temperature;BMP_pressure;BME280_temperature;BME280_humidity;BME280_pressure;Samples;Min_cycle;Max_cycle;Signal;HPM_P1;HPM_P2
2023/08/24 00:00:22;;;;;;;5.68;4.10;;;;;;;;;;5079036;28;20024;-81
2023/08/24 00:02:48;;;;;;;3.65;2.83;;;;;;;;;;5063724;28;20101;-81
2023/08/24 00:05:13;;;;;;;3.83;3.00;;;;;;;;;;5047867;28;20038;-81
2023/08/24 00:07:39;;;;;;;3.92;3.33;;;;;;;;;;5073954;28;20028;-81
2023/08/24 00:10:05;;;;;;;5.53;3.05;;;;;;;;;;5075528;28;20552;-81
2023/08/24 00:12:30;;;;;;;3.72;3.05;;;;;;;;;;5061545;28;20028;-81
2023/08/24 00:14:55;;;;;;;4.30;3.40;;;;;;;;;;5047783;28;20029;-81
2023/08/24 00:17:22;;;;;;;5.28;2.97;;;;;;;;;;5069829;28;20373;-81
2023/08/24 00:19:48;;;;;;;5.53;3.28;;;;;;;;;;5065615;28;20388;-81
2023/08/24 00:22:13;;;;;;;3.63;3.03;;;;;;;;;;5044594;28;20468;-81
2023/08/24 00:24:39;;;;;;;4.68;3.53;;;;;;;;;;5064059;28;20047;-81
2023/08/24 00:27:04;;;;;;;3.22;2.67;;;;;;;;;;5070696;28;20111;-81
2023/08/24 00:29:30;;;;;;;4.32;3.13;;;;;;;;;;5075703;28;20047;-81
2023/08/24 00:31:55;;;;;;;4.05;3.28;;;;;;;;;;5049331;28;20502;-80
2023/08/24 00:34:20;;;;;;;5.07;3.75;;;;;;;;;;5057861;28;20119;-81
2023/08/24 00:36:46;;;;;;;5.55;3.45;;;;;;;;;;5076148;28;20056;-80
2023/08/24 00:39:11;;;;;;;4.53;3.58;;;;;;;;;;5075739;28;20032;-81
2023/08/24 00:41:37;;;;;;;6.07;3.30;;;;;;;;;;5076966;28;20028;-81
2023/08/24 00:44:02;;;;;;;3.42;3.10;;;;;;;;;;5077015;28;20059;-81
2023/08/24 00:46:28;;;;;;;4.45;3.33;;;;;;;;;;5080062;28;20012;-80
2023/08/24 00:48:57;;;;;;;5.97;3.50;;;;;;;;;;5079134;28;20063;-81
2023/08/24 00:51:24;;;;;;;5.88;3.13;;;;;;;;;;5078095;28;20059;-80
2023/08/24 00:53:50;;;;;;;4.40;3.15;;;;;;;;;;5076192;28;20052;-81
2023/08/24 00:56:15;;;;;;;3.55;3.25;;;;;;;;;;5078857;28;20488;-81
2023/08/24 00:58:41;;;;;;;6.40;3.22;;;;;;;;;;5082959;28;20008;-80
2023/08/24 01:01:07;;;;;;;5.28;3.60;;;;;;;;;;5078967;28;20109;-81
2023/08/24 01:03:32;;;;;;;3.50;3.20;;;;;;;;;;5076633;28;20013;-80
2023/08/24 01:05:57;;;;;;;4.03;3.30;;;;;;;;;;5068194;28;20059;-81
2023/08/24 01:08:24;;;;;;;5.47;3.83;;;;;;;;;;5076469;28;20028;-81
2023/08/24 01:11:14;;;;;;;7.28;4.07;;;;;;;;;;5058931;28;20024;-80
2023/08/24 01:14:04;;;;;;;3.47;2.92;;;;;;;;;;5059641;28;20522;-80
2023/08/24 01:16:33;;;;;;;5.63;3.63;;;;;;;;;;5076479;28;20033;-80
2023/08/24 01:18:59;;;;;;;5.72;3.17;;;;;;;;;;5076379;28;20073;-81
2023/08/24 01:21:29;;;;;;;7.55;3.55;;;;;;;;;;5058848;28;20395;-81
2023/08/24 01:24:17;;;;;;;6.40;3.30;;;;;;;;;;5076269;28;20036;-81
2023/08/24 01:26:44;;;;;;;7.40;3.47;;;;;;;;;;5077716;28;20029;-80
2023/08/24 01:29:09;;;;;;;5.38;3.50;;;;;;;;;;5076458;28;20024;-81
2023/08/24 01:31:35;;;;;;;5.38;3.30;;;;;;;;;;5076693;28;20020;-81
2023/08/24 01:34:01;;;;;;;4.95;3.55;;;;;;;;;;5075605;28;20028;-80
2023/08/24 01:36:26;;;;;;;3.95;3.45;;;;;;;;;;5073264;28;20020;-81
2023/08/24 01:39:12;;;;;;;3.70;3.25;;;;;;;;;;5067843;28;20029;-81
2023/08/24 01:41:39;;;;;;;3.70;2.90;;;;;;;;;;5075111;28;20024;-81
2023/08/24 01:44:07;;;;;;;6.43;3.63;;;;;;;;;;5074139;28;20036;-81
2023/08/24 01:46:34;;;;;;;3.65;3.08;;;;;;;;;;5079638;28;20076;-79
2023/08/24 01:49:00;;;;;;;5.18;3.35;;;;;;;;;;5066407;28;20125;-80
2023/08/24 01:51:26;;;;;;;5.30;3.42;;;;;;;;;;5062272;28;20028;-80
2023/08/24 01:53:52;;;;;;;5.43;3.90;;;;;;;;;;5083878;28;20086;-79
2023/08/24 01:56:17;;;;;;;4.30;3.88;;;;;;;;;;5085556;28;20025;-79
2023/08/24 01:58:43;;;;;;;7.32;4.00;;;;;;;;;;5067060;28;20167;-80
2023/08/24 02:01:10;;;;;;;6.05;3.78;;;;;;;;;;5085638;28;20028;-80
2023/08/24 02:03:35;;;;;;;5.20;3.90;;;;;;;;;;5085962;28;20474;-80
2023/08/24 02:06:01;;;;;;;6.18;3.45;;;;;;;;;;5082709;28;20017;-79
2023/08/24 02:08:26;;;;;;;3.85;3.45;;;;;;;;;;5081805;28;20020;-80
2023/08/24 02:10:52;;;;;;;5.20;3.58;;;;;;;;;;5067406;28;20031;-79
2023/08/24 02:13:17;;;;;;;6.47;4.10;;;;;;;;;;5085389;28;20073;-79
2023/08/24 02:15:42;;;;;;;6.28;3.95;;;;;;;;;;5085675;28;20025;-80
2023/08/24 02:18:08;;;;;;;4.43;3.53;;;;;;;;;;5071186;28;20096;-80
2023/08/24 02:20:37;;;;;;;5.82;3.88;;;;;;;;;;5089057;28;20043;-80
2023/08/24 02:23:06;;;;;;;5.18;3.75;;;;;;;;;;5081953;28;20029;-80
2023/08/24 02:25:32;;;;;;;6.10;4.03;;;;;;;;;;5088065;28;20107;-79
2023/08/24 02:27:58;;;;;;;5.15;4.10;;;;;;;;;;5089415;28;20024;-80
2023/08/24 02:30:24;;;;;;;5.80;4.30;;;;;;;;;;5082656;28;20036;-80
2023/08/24 02:32:50;;;;;;;6.68;3.75;;;;;;;;;;5083211;28;20029;-79
2023/08/24 02:35:15;;;;;;;6.68;4.13;;;;;;;;;;5079560;28;20053;-80
2023/08/24 02:37:41;;;;;;;6.00;4.07;;;;;;;;;;5079631;28;20100;-80
2023/08/24 02:40:09;;;;;;;5.55;3.80;;;;;;;;;;5077850;28;20051;-80
2023/08/24 02:42:34;;;;;;;5.43;3.85;;;;;;;;;;5087640;28;20050;-80
2023/08/24 02:44:59;;;;;;;6.93;3.92;;;;;;;;;;5071641;28;20025;-80
2023/08/24 02:47:25;;;;;;;4.97;4.13;;;;;;;;;;5071018;28;20017;-80
2023/08/24 02:49:50;;;;;;;6.50;4.50;;;;;;;;;;5088769;28;20031;-79
2023/08/24 02:52:15;;;;;;;5.75;4.05;;;;;;;;;;5087850;28;20020;-80
2023/08/24 02:54:41;;;;;;;6.53;4.25;;;;;;;;;;5081802;28;20025;-80
2023/08/24 02:57:07;;;;;;;4.78;4.28;;;;;;;;;;5075252;28;20028;-79
2023/08/24 02:59:32;;;;;;;5.68;3.90;;;;;;;;;;5091877;28;20031;-80
2023/08/24 03:01:58;;;;;;;5.90;3.95;;;;;;;;;;5091199;28;20040;-80
2023/08/24 03:04:23;;;;;;;6.63;4.25;;;;;;;;;;5091223;28;20024;-80
2023/08/24 03:06:49;;;;;;;7.30;4.72;;;;;;;;;;5081487;28;20060;-79
2023/08/24 03:09:14;;;;;;;6.07;4.70;;;;;;;;;;5089354;28;20020;-79
2023/08/24 03:11:49;;;;;;;5.60;4.22;;;;;;;;;;5081459;28;20032;-80
2023/08/24 03:14:14;;;;;;;4.28;3.60;;;;;;;;;;5069080;28;20023;-79
2023/08/24 03:16:39;;;;;;;5.30;3.92;;;;;;;;;;5061149;28;20051;-80
2023/08/24 03:19:05;;;;;;;4.68;3.70;;;;;;;;;;5087409;28;20028;-80
2023/08/24 03:21:30;;;;;;;4.68;3.90;;;;;;;;;;5087585;28;20023;-80
2023/08/24 03:23:56;;;;;;;6.13;4.30;;;;;;;;;;5077076;28;20025;-79
2023/08/24 03:26:23;;;;;;;5.50;4.10;;;;;;;;;;5087388;28;20043;-80
2023/08/24 03:28:48;;;;;;;6.05;4.38;;;;;;;;;;5086937;28;20093;-79
2023/08/24 03:31:14;;;;;;;5.15;4.35;;;;;;;;;;5087785;28;20021;-79
2023/08/24 03:33:39;;;;;;;6.90;4.53;;;;;;;;;;5093659;28;20020;-80
2023/08/24 03:36:04;;;;;;;5.05;4.00;;;;;;;;;;5081965;28;20029;-80
2023/08/24 03:38:30;;;;;;;6.25;4.40;;;;;;;;;;5072232;28;20020;-80
2023/08/24 03:41:05;;;;;;;5.97;3.65;;;;;;;;;;5061878;28;20604;-80
2023/08/24 03:43:35;;;;;;;10.80;4.15;;;;;;;;;;5071207;28;20080;-80
2023/08/24 03:46:01;;;;;;;5.82;4.05;;;;;;;;;;5071176;28;20024;-80
2023/08/24 03:48:27;;;;;;;5.97;4.28;;;;;;;;;;5057204;28;20114;-79
2023/08/24 03:50:57;;;;;;;4.90;3.72;;;;;;;;;;5065050;28;20028;-79
2023/08/24 03:53:23;;;;;;;5.90;4.28;;;;;;;;;;5078761;28;20102;-79
2023/08/24 03:55:49;;;;;;;5.68;4.30;;;;;;;;;;5081642;28;20024;-79
2023/08/24 03:58:15;;;;;;;6.47;4.13;;;;;;;;;;5084087;28;20036;-80
2023/08/24 04:00:41;;;;;;;5.60;4.43;;;;;;;;;;5073756;28;20403;-80
2023/08/24 04:03:07;;;;;;;5.60;4.22;;;;;;;;;;5085213;28;20032;-79
2023/08/24 04:05:32;;;;;;;6.40;4.38;;;;;;;;;;5075558;28;20031;-80
2023/08/24 04:07:58;;;;;;;7.43;4.55;;;;;;;;;;5060756;28;20119;-79
2023/08/24 04:10:24;;;;;;;7.60;4.38;;;;;;;;;;5079280;28;20021;-80
2023/08/24 04:12:49;;;;;;;6.45;4.43;;;;;;;;;;5080577;28;20055;-82
2023/08/24 04:15:14;;;;;;;10.25;4.07;;;;;;;;;;5059137;28;20031;-79
2023/08/24 04:17:40;;;;;;;4.22;3.60;;;;;;;;;;5080651;28;20315;-80
2023/08/24 04:20:07;;;;;;;5.00;3.95;;;;;;;;;;5074695;28;20088;-79
2023/08/24 04:22:32;;;;;;;6.32;4.45;;;;;;;;;;5077374;28;20020;-79
2023/08/24 04:24:58;;;;;;;4.38;3.65;;;;;;;;;;5086049;28;20106;-79
2023/08/24 04:27:23;;;;;;;5.65;4.10;;;;;;;;;;5069155;28;20012;-79
2023/08/24 04:29:48;;;;;;;6.43;4.80;;;;;;;;;;5084864;28;20017;-79
2023/08/24 04:32:14;;;;;;;5.20;4.18;;;;;;;;;;5064936;28;20077;-79
2023/08/24 04:34:39;;;;;;;7.68;4.45;;;;;;;;;;5079567;28;20036;-79
2023/08/24 04:37:06;;;;;;;9.80;4.32;;;;;;;;;;5057966;28;20020;-79
2023/08/24 04:39:32;;;;;;;4.20;3.78;;;;;;;;;;5052018;28;20024;-80
2023/08/24 04:41:57;;;;;;;5.53;4.10;;;;;;;;;;5071545;28;20044;-79
2023/08/24 04:44:24;;;;;;;5.53;4.45;;;;;;;;;;5094474;28;20506;-79
2023/08/24 04:46:49;;;;;;;4.65;3.67;;;;;;;;;;5090435;28;20070;-80
2023/08/24 04:49:14;;;;;;;6.53;3.80;;;;;;;;;;5075632;28;20032;-80
2023/08/24 04:51:40;;;;;;;6.05;4.28;;;;;;;;;;5065245;28;20026;-80
2023/08/24 04:54:05;;;;;;;5.28;4.13;;;;;;;;;;5082462;28;20526;-80
2023/08/24 04:56:31;;;;;;;4.93;3.58;;;;;;;;;;5082889;28;20016;-79
2023/08/24 04:58:57;;;;;;;4.32;3.17;;;;;;;;;;5064668;28;20052;-80
2023/08/24 05:01:25;;;;;;;3.60;3.30;;;;;;;;;;5049875;28;20422;-79
2023/08/24 05:03:52;;;;;;;4.13;3.53;;;;;;;;;;5085131;28;20021;-80
2023/08/24 05:06:17;;;;;;;4.03;3.42;;;;;;;;;;5088480;28;20024;-80
2023/08/24 05:08:43;;;;;;;4.85;3.90;;;;;;;;;;5080113;28;20126;-79
2023/08/24 05:11:19;;;;;;;4.72;3.67;;;;;;;;;;5077927;28;20024;-79
2023/08/24 05:13:45;;;;;;;5.05;3.65;;;;;;;;;;5078871;28;20043;-79
2023/08/24 05:16:12;;;;;;;4.55;3.65;;;;;;;;;;5084228;28;20024;-79
2023/08/24 05:18:37;;;;;;;5.47;3.72;;;;;;;;;;5078501;28;20048;-79
2023/08/24 05:21:04;;;;;;;6.03;3.80;;;;;;;;;;5084627;28;20027;-79
2023/08/24 05:23:33;;;;;;;4.90;3.80;;;;;;;;;;5081772;28;20020;-80
2023/08/24 05:25:59;;;;;;;6.13;3.88;;;;;;;;;;5087108;28;20112;-80
2023/08/24 05:28:25;;;;;;;5.55;4.28;;;;;;;;;;5086918;28;20020;-80
2023/08/24 05:30:52;;;;;;;5.60;4.20;;;;;;;;;;5061019;28;20031;-80
2023/08/24 05:33:17;;;;;;;6.63;3.95;;;;;;;;;;5085909;28;20048;-79
2023/08/24 05:35:42;;;;;;;7.35;4.45;;;;;;;;;;5086433;28;20103;-79
2023/08/24 05:38:08;;;;;;;5.80;4.45;;;;;;;;;;5087120;28;20051;-79
2023/08/24 05:40:34;;;;;;;6.50;4.18;;;;;;;;;;5086870;28;20078;-80
2023/08/24 05:42:59;;;;;;;10.45;4.60;;;;;;;;;;5084917;28;20039;-80
2023/08/24 05:45:25;;;;;;;6.50;4.43;;;;;;;;;;5061270;28;20036;-80
2023/08/24 05:47:50;;;;;;;5.95;3.97;;;;;;;;;;5064085;28;20009;-80
2023/08/24 05:50:16;;;;;;;6.07;4.07;;;;;;;;;;5073867;28;20026;-80
2023/08/24 05:52:41;;;;;;;6.03;4.30;;;;;;;;;;5078646;28;20036;-81
2023/08/24 05:55:07;;;;;;;5.07;3.85;;;;;;;;;;5078824;28;20021;-80
2023/08/24 05:57:32;;;;;;;4.40;4.00;;;;;;;;;;5070473;28;20515;-80
2023/08/24 05:59:58;;;;;;;7.57;4.68;;;;;;;;;;5072353;28;20600;-80
2023/08/24 06:02:23;;;;;;;4.82;4.28;;;;;;;;;;5075921;28;20064;-80
2023/08/24 06:04:50;;;;;;;5.57;4.32;;;;;;;;;;5046301;28;20037;-80
2023/08/24 06:07:16;;;;;;;5.38;4.28;;;;;;;;;;5065484;28;20379;-80
2023/08/24 06:10:35;;;;;;;8.23;4.05;;;;;;;;;;5063043;28;20025;-82
2023/08/24 06:13:01;;;;;;;4.97;4.00;;;;;;;;;;5057814;28;20060;-80
2023/08/24 06:15:27;;;;;;;6.53;4.22;;;;;;;;;;5076907;28;20097;-81
2023/08/24 06:17:53;;;;;;;4.72;4.22;;;;;;;;;;5081968;28;20033;-80
2023/08/24 06:20:19;;;;;;;5.97;4.20;;;;;;;;;;5077391;28;20025;-80
2023/08/24 06:22:44;;;;;;;7.78;4.20;;;;;;;;;;5068174;28;20020;-80
2023/08/24 06:25:10;;;;;;;5.30;4.20;;;;;;;;;;5074885;28;20396;-81
2023/08/24 06:27:35;;;;;;;6.65;4.35;;;;;;;;;;5062626;28;20383;-81
2023/08/24 06:30:01;;;;;;;6.15;3.97;;;;;;;;;;5064491;28;20036;-81
2023/08/24 06:32:27;;;;;;;4.00;3.60;;;;;;;;;;5082740;28;20025;-81
2023/08/24 06:34:54;;;;;;;8.98;3.80;;;;;;;;;;5076461;28;20032;-81
2023/08/24 06:37:19;;;;;;;5.65;3.90;;;;;;;;;;5070774;28;20016;-80
2023/08/24 06:39:44;;;;;;;5.40;3.65;;;;;;;;;;5065268;28;20021;-80
2023/08/24 06:42:10;;;;;;;7.90;3.70;;;;;;;;;;5042165;28;20055;-80
2023/08/24 06:44:35;;;;;;;8.55;4.40;;;;;;;;;;5060711;28;20028;-79
2023/08/24 06:47:01;;;;;;;6.28;3.67;;;;;;;;;;5073173;28;20056;-79
2023/08/24 06:49:26;;;;;;;8.75;3.90;;;;;;;;;;5076306;28;20032;-79
2023/08/24 06:51:52;;;;;;;8.27;4.40;;;;;;;;;;5077686;28;20024;-80
2023/08/24 06:54:17;;;;;;;6.47;4.32;;;;;;;;;;5066998;28;20029;-81
2023/08/24 06:56:43;;;;;;;7.60;4.53;;;;;;;;;;5048618;28;20111;-80
2023/08/24 06:59:09;;;;;;;8.05;4.65;;;;;;;;;;5048688;28;20024;-80
2023/08/24 07:01:35;;;;;;;5.25;4.53;;;;;;;;;;5061163;28;20098;-80
2023/08/24 07:04:00;;;;;;;6.53;4.68;;;;;;;;;;5076312;28;20063;-80
2023/08/24 07:06:25;;;;;;;6.70;4.20;;;;;;;;;;5075731;28;20020;-80
2023/08/24 07:08:51;;;;;;;5.90;4.53;;;;;;;;;;5076498;28;20480;-80
2023/08/24 07:11:17;;;;;;;6.22;4.57;;;;;;;;;;5077012;28;20058;-81
2023/08/24 07:13:42;;;;;;;7.22;4.50;;;;;;;;;;5056627;28;20071;-79
2023/08/24 07:16:08;;;;;;;7.90;3.85;;;;;;;;;;5077812;28;20032;-79
2023/08/24 07:18:33;;;;;;;5.95;4.30;;;;;;;;;;5050817;28;20039;-80
2023/08/24 07:20:58;;;;;;;5.80;3.95;;;;;;;;;;5071147;28;20048;-79
2023/08/24 07:23:24;;;;;;;5.72;3.90;;;;;;;;;;5064205;28;20066;-80
2023/08/24 07:25:49;;;;;;;4.95;4.07;;;;;;;;;;5063478;28;20075;-79
2023/08/24 07:28:14;;;;;;;7.18;4.03;;;;;;;;;;5065357;28;20021;-80
2023/08/24 07:30:40;;;;;;;9.90;3.72;;;;;;;;;;5057507;28;20085;-80
2023/08/24 07:33:05;;;;;;;6.25;3.70;;;;;;;;;;5079398;28;20090;-80
2023/08/24 07:35:31;;;;;;;5.53;3.88;;;;;;;;;;5050327;28;20025;-79
2023/08/24 07:37:56;;;;;;;4.68;4.05;;;;;;;;;;5062491;28;20021;-80
2023/08/24 07:40:22;;;;;;;4.72;3.67;;;;;;;;;;5057859;28;20117;-80
2023/08/24 07:42:54;;;;;;;5.15;3.85;;;;;;;;;;5093015;28;20024;-80
2023/08/24 07:45:20;;;;;;;5.57;3.67;;;;;;;;;;5061563;28;20021;-80
2023/08/24 07:47:45;;;;;;;4.65;3.88;;;;;;;;;;5059075;28;20016;-81
2023/08/24 07:50:11;;;;;;;4.78;3.92;;;;;;;;;;5077445;28;20490;-81
2023/08/24 07:52:38;;;;;;;5.18;3.38;;;;;;;;;;5051542;28;20024;-81
2023/08/24 07:55:06;;;;;;;4.57;3.40;;;;;;;;;;5061310;28;20028;-81
2023/08/24 07:57:32;;;;;;;6.03;3.90;;;;;;;;;;5074705;28;20043;-80
2023/08/24 07:59:59;;;;;;;4.35;3.58;;;;;;;;;;5057626;28;20084;-81
2023/08/24 08:02:25;;;;;;;2.90;2.58;;;;;;;;;;5066833;28;20025;-81
2023/08/24 08:04:50;;;;;;;3.80;3.20;;;;;;;;;;5075085;28;20024;-81
2023/08/24 08:07:15;;;;;;;3.83;3.00;;;;;;;;;;5049193;28;20016;-81
2023/08/24 08:09:42;;;;;;;2.97;2.67;;;;;;;;;;5072726;28;20033;-82
2023/08/24 08:12:08;;;;;;;3.13;2.83;;;;;;;;;;5060475;28;20043;-81
2023/08/24 08:14:33;;;;;;;4.20;2.92;;;;;;;;;;5071581;28;20555;-81
2023/08/24 08:16:58;;;;;;;3.72;2.33;;;;;;;;;;5072542;28;20395;-81
2023/08/24 08:19:27;;;;;;;2.80;2.35;;;;;;;;;;5076038;28;20021;-81
2023/08/24 08:21:53;;;;;;;4.18;2.50;;;;;;;;;;5078847;28;20396;-81
2023/08/24 08:24:18;;;;;;;4.00;2.42;;;;;;;;;;5066422;28;20029;-81
2023/08/24 08:26:44;;;;;;;3.10;2.65;;;;;;;;;;5073214;28;20017;-81
2023/08/24 08:29:10;;;;;;;3.75;2.38;;;;;;;;;;5055566;28;20082;-81
2023/08/24 08:31:35;;;;;;;3.38;2.20;;;;;;;;;;5073011;28;20636;-81
2023/08/24 08:34:01;;;;;;;2.70;1.98;;;;;;;;;;5068877;28;20031;-82
2023/08/24 08:36:26;;;;;;;3.03;2.42;;;;;;;;;;5070754;28;20291;-82
2023/08/24 08:38:52;;;;;;;2.72;2.20;;;;;;;;;;5070319;28;20032;-81
2023/08/24 08:41:22;;;;;;;4.25;2.42;;;;;;;;;;5063853;28;20017;-81
2023/08/24 08:43:48;;;;;;;4.15;2.40;;;;;;;;;;5072148;28;20504;-82
2023/08/24 08:46:16;;;;;;;5.13;2.35;;;;;;;;;;5058195;28;20275;-81
2023/08/24 08:48:41;;;;;;;5.15;2.42;;;;;;;;;;5076137;28;20032;-81
2023/08/24 08:51:08;;;;;;;3.17;2.40;;;;;;;;;;5060077;28;20435;-82
2023/08/24 08:53:33;;;;;;;2.13;1.92;;;;;;;;;;5068433;28;20106;-81
2023/08/24 08:56:04;;;;;;;2.45;2.15;;;;;;;;;;5069093;28;20045;-81
2023/08/24 08:58:31;;;;;;;3.55;2.35;;;;;;;;;;5061056;28;20095;-81
2023/08/24 09:00:59;;;;;;;3.17;2.20;;;;;;;;;;5067945;28;20029;-81
2023/08/24 09:03:27;;;;;;;3.83;1.95;;;;;;;;;;5052014;28;20066;-81
2023/08/24 09:05:52;;;;;;;2.85;2.17;;;;;;;;;;5075861;28;20047;-81
2023/08/24 09:08:18;;;;;;;4.70;2.28;;;;;;;;;;5068605;28;20057;-81
2023/08/24 09:10:44;;;;;;;3.20;2.03;;;;;;;;;;5070515;28;20036;-81
2023/08/24 09:13:10;;;;;;;2.85;2.20;;;;;;;;;;5043895;28;20024;-81
2023/08/24 09:15:38;;;;;;;3.40;2.25;;;;;;;;;;5060737;28;20025;-81
2023/08/24 09:18:04;;;;;;;3.63;2.47;;;;;;;;;;5051520;28;20551;-81
2023/08/24 09:20:30;;;;;;;3.72;2.28;;;;;;;;;;5063692;28;20063;-81
2023/08/24 09:22:57;;;;;;;2.83;2.20;;;;;;;;;;5068403;28;20035;-81
2023/08/24 09:25:25;;;;;;;2.92;2.30;;;;;;;;;;5074840;28;20057;-81
2023/08/24 09:28:01;;;;;;;2.45;2.17;;;;;;;;;;5067481;28;20374;-81
2023/08/24 09:30:35;;;;;;;2.92;2.28;;;;;;;;;;5057403;28;20059;-81
2023/08/24 09:33:10;;;;;;;4.75;2.30;;;;;;;;;;5051421;28;20031;-81
2023/08/24 09:35:36;;;;;;;3.92;2.28;;;;;;;;;;5073202;28;20031;-81
2023/08/24 09:38:29;;;;;;;3.00;2.50;;;;;;;;;;5074828;28;20017;-81
2023/08/24 09:40:55;;;;;;;3.03;2.58;;;;;;;;;;5070378;28;20052;-81
2023/08/24 09:43:22;;;;;;;2.42;2.05;;;;;;;;;;5070230;28;20033;-82
2023/08/24 09:45:54;;;;;;;3.78;2.58;;;;;;;;;;5051944;28;20081;-79
2023/08/24 09:48:20;;;;;;;2.70;2.15;;;;;;;;;;5074611;28;20029;-80
2023/08/24 09:50:47;;;;;;;3.35;2.35;;;;;;;;;;5070398;28;20029;-80
2023/08/24 09:53:20;;;;;;;4.20;2.20;;;;;;;;;;5069597;28;20498;-80
2023/08/24 09:56:01;;;;;;;2.55;2.15;;;;;;;;;;5072215;28;20020;-83
2023/08/24 09:58:27;;;;;;;;;;;;;;;;;;5072058;28;20024;-81
2023/08/24 10:00:52;;;;;;;4.15;2.63;;;;;;;;;;5074735;28;19916;-81
2023/08/24 10:03:20;;;;;;;3.45;2.45;;;;;;;;;;5074941;28;20016;-81
2023/08/24 10:06:00;;;;;;;2.55;2.20;;;;;;;;;;5054250;28;20035;-81
2023/08/24 10:08:47;;;;;;;3.67;2.60;;;;;;;;;;5082667;28;20040;-84
2023/08/24 10:11:20;;;;;;;4.63;2.60;;;;;;;;;;5065116;28;20040;-81
2023/08/24 10:13:57;;;;;;;2.67;2.38;;;;;;;;;;5042937;28;20024;-81
2023/08/24 10:16:24;;;;;;;2.63;2.13;;;;;;;;;;5073304;28;20483;-81
2023/08/24 10:18:51;;;;;;;3.30;2.08;;;;;;;;;;5058731;28;20028;-81
2023/08/24 10:21:18;;;;;;;4.00;2.30;;;;;;;;;;5047145;28;20024;-82
2023/08/24 10:23:45;;;;;;;4.68;2.30;;;;;;;;;;5075635;28;20082;-81
2023/08/24 10:26:12;;;;;;;2.10;1.90;;;;;;;;;;5071634;28;20759;-82
2023/08/24 10:28:52;;;;;;;2.78;2.33;;;;;;;;;;5066708;28;20047;-81
2023/08/24 10:31:18;;;;;;;3.25;2.65;;;;;;;;;;5068300;28;20035;-82
2023/08/24 10:33:46;;;;;;;2.55;2.30;;;;;;;;;;5072613;28;20107;-82
2023/08/24 10:36:13;;;;;;;5.40;2.72;;;;;;;;;;5072985;28;20029;-82
2023/08/24 10:38:42;;;;;;;2.72;2.10;;;;;;;;;;5073872;28;20476;-81
2023/08/24 10:41:08;;;;;;;5.60;2.60;;;;;;;;;;5072821;28;20092;-81
2023/08/24 10:43:41;;;;;;;2.58;2.30;;;;;;;;;;5073324;28;20031;-82
2023/08/24 10:46:13;;;;;;;3.10;2.40;;;;;;;;;;5070055;28;20013;-81
2023/08/24 10:48:42;;;;;;;3.83;2.70;;;;;;;;;;5051913;28;20017;-82
2023/08/24 10:51:13;;;;;;;3.40;2.25;;;;;;;;;;5059609;28;20032;-82
2023/08/24 10:53:40;;;;;;;2.92;2.15;;;;;;;;;;5072330;28;20025;-82
2023/08/24 10:56:12;;;;;;;7.03;2.50;;;;;;;;;;5074758;28;20028;-82
2023/08/24 10:58:38;;;;;;;3.88;2.80;;;;;;;;;;5071722;28;20048;-82
2023/08/24 11:01:03;;;;;;;3.25;2.53;;;;;;;;;;5059998;28;20078;-82
2023/08/24 11:03:35;;;;;;;3.15;2.78;;;;;;;;;;5052425;28;20024;-82
2023/08/24 11:06:00;;;;;;;4.03;2.70;;;;;;;;;;5075517;28;20499;-82
2023/08/24 11:08:45;;;;;;;4.47;2.80;;;;;;;;;;5082661;28;20021;-81
2023/08/24 11:11:21;;;;;;;3.67;2.38;;;;;;;;;;5081308;28;20036;-82
2023/08/24 11:14:15;;;;;;;2.90;2.40;;;;;;;;;;5072937;28;20036;-81
2023/08/24 11:16:46;;;;;;;5.28;2.92;;;;;;;;;;5072945;28;20020;-83
2023/08/24 11:19:12;;;;;;;4.63;2.60;;;;;;;;;;5054347;28;20197;-82
2023/08/24 11:21:39;;;;;;;3.75;2.78;;;;;;;;;;5052736;28;20502;-82
2023/08/24 11:24:05;;;;;;;3.85;2.80;;;;;;;;;;5082401;28;20032;-82
2023/08/24 11:26:31;;;;;;;4.30;2.67;;;;;;;;;;5082203;28;20024;-81
2023/08/24 11:28:57;;;;;;;2.70;2.50;;;;;;;;;;5082829;28;20454;-81
2023/08/24 11:31:26;;;;;;;3.33;2.60;;;;;;;;;;5079205;28;20033;-81
2023/08/24 11:33:56;;;;;;;3.17;2.55;;;;;;;;;;5080195;28;20021;-83
2023/08/24 11:36:23;;;;;;;3.22;2.45;;;;;;;;;;5080688;28;20020;-81
2023/08/24 11:38:52;;;;;;;4.38;2.40;;;;;;;;;;5063458;28;20024;-81
2023/08/24 11:41:18;;;;;;;2.90;2.47;;;;;;;;;;5080103;28;20021;-82
2023/08/24 11:43:45;;;;;;;3.83;2.80;;;;;;;;;;5082299;28;20029;-81
2023/08/24 11:46:11;;;;;;;7.25;2.50;;;;;;;;;;5085930;28;20020;-82
2023/08/24 11:48:39;;;;;;;3.70;2.53;;;;;;;;;;5081366;28;20021;-82
2023/08/24 11:51:08;;;;;;;4.90;2.70;;;;;;;;;;5064696;28;20020;-81
2023/08/24 11:53:37;;;;;;;5.38;2.63;;;;;;;;;;5078821;28;20013;-81
2023/08/24 11:56:02;;;;;;;4.47;2.70;;;;;;;;;;5079437;28;20032;-82
2023/08/24 11:58:28;;;;;;;3.58;3.10;;;;;;;;;;5061827;28;20036;-82
2023/08/24 12:00:53;;;;;;;5.78;3.00;;;;;;;;;;5079386;28;20040;-81
2023/08/24 12:03:19;;;;;;;10.30;3.50;;;;;;;;;;5079159;28;20475;-81
2023/08/24 12:05:44;;;;;;;4.00;2.80;;;;;;;;;;5080276;28;20020;-82
2023/08/24 12:08:11;;;;;;;19.52;5.60;;;;;;;;;;5075938;28;20024;-81
2023/08/24 12:10:42;;;;;;;12.45;3.70;;;;;;;;;;5050187;28;20334;-82
2023/08/24 12:13:09;;;;;;;3.17;2.88;;;;;;;;;;5070106;28;20154;-82
2023/08/24 12:15:36;;;;;;;11.43;3.90;;;;;;;;;;5085365;28;20115;-82
2023/08/24 12:18:12;;;;;;;4.15;2.75;;;;;;;;;;5084245;28;20248;-82
2023/08/24 12:20:37;;;;;;;4.50;3.00;;;;;;;;;;5065951;28;20028;-81
2023/08/24 12:23:03;;;;;;;3.72;3.00;;;;;;;;;;5082560;28;20025;-81
2023/08/24 12:25:29;;;;;;;3.17;2.78;;;;;;;;;;5080186;28;20048;-82
2023/08/24 12:28:14;;;;;;;5.95;3.28;;;;;;;;;;5076440;28;20025;-81
2023/08/24 12:31:01;;;;;;;4.70;3.15;;;;;;;;;;5058951;28;20393;-81
2023/08/24 12:33:31;;;;;;;5.50;3.10;;;;;;;;;;5071518;28;20024;-82
2023/08/24 12:35:58;;;;;;;3.75;2.80;;;;;;;;;;5051599;28;20105;-81
2023/08/24 12:38:26;;;;;;;3.28;2.75;;;;;;;;;;5083179;28;20044;-81
2023/08/24 12:40:52;;;;;;;3.88;3.00;;;;;;;;;;5068602;28;20074;-82
2023/08/24 12:43:18;;;;;;;7.10;3.55;;;;;;;;;;5078115;28;20099;-81
2023/08/24 12:45:43;;;;;;;4.45;3.00;;;;;;;;;;5080219;28;20029;-81
2023/08/24 12:48:09;;;;;;;4.65;3.05;;;;;;;;;;5078190;28;20012;-82
2023/08/24 12:50:35;;;;;;;19.55;5.18;;;;;;;;;;5080363;28;20024;-82
2023/08/24 12:53:00;;;;;;;4.00;3.10;;;;;;;;;;5061156;28;20123;-81
2023/08/24 12:55:29;;;;;;;6.40;3.40;;;;;;;;;;5078152;28;20020;-81
2023/08/24 12:57:55;;;;;;;4.68;2.70;;;;;;;;;;5076374;28;20035;-81
2023/08/24 13:00:21;;;;;;;7.63;2.78;;;;;;;;;;5073228;28;20021;-81
2023/08/24 13:02:48;;;;;;;7.85;3.28;;;;;;;;;;5085145;28;20035;-81
2023/08/24 13:05:14;;;;;;;3.58;2.72;;;;;;;;;;5082128;28;20020;-81
2023/08/24 13:07:40;;;;;;;4.88;3.25;;;;;;;;;;5079957;28;20021;-81
2023/08/24 13:10:06;;;;;;;5.15;2.78;;;;;;;;;;5080077;28;20544;-81
2023/08/24 13:12:32;;;;;;;3.00;2.70;;;;;;;;;;5083385;28;20095;-81
2023/08/24 13:14:57;;;;;;;5.13;3.50;;;;;;;;;;5079994;28;20041;-81
2023/08/24 13:17:22;;;;;;;4.65;2.55;;;;;;;;;;5079164;28;20047;-81
2023/08/24 13:19:48;;;;;;;6.45;2.97;;;;;;;;;;5080411;28;20036;-81
2023/08/24 13:22:14;;;;;;;3.00;2.50;;;;;;;;;;5070321;28;20042;-81
2023/08/24 13:24:42;;;;;;;3.30;3.00;;;;;;;;;;5081274;28;20032;-81
2023/08/24 13:27:10;;;;;;;4.63;2.80;;;;;;;;;;5077927;28;20020;-81
2023/08/24 13:29:36;;;;;;;2.80;2.40;;;;;;;;;;5084828;28;20026;-81
2023/08/24 13:32:01;;;;;;;7.43;2.75;;;;;;;;;;5082068;28;20039;-81
2023/08/24 13:34:27;;;;;;;5.30;3.10;;;;;;;;;;5077038;28;20020;-81
2023/08/24 13:36:52;;;;;;;7.32;3.17;;;;;;;;;;5077405;28;20050;-81
2023/08/24 13:39:18;;;;;;;2.90;2.60;;;;;;;;;;5077195;28;20442;-80
2023/08/24 13:41:44;;;;;;;2.80;2.60;;;;;;;;;;5078931;28;20017;-81
2023/08/24 13:44:09;;;;;;;4.95;2.60;;;;;;;;;;5058991;28;20028;-81
2023/08/24 13:46:35;;;;;;;4.22;2.92;;;;;;;;;;5076337;28;20021;-82
2023/08/24 13:49:00;;;;;;;3.35;2.90;;;;;;;;;;5068137;28;20021;-82
2023/08/24 13:51:25;;;;;;;5.25;2.63;;;;;;;;;;5073226;28;20048;-82
2023/08/24 13:53:51;;;;;;;7.25;2.83;;;;;;;;;;5070053;28;20016;-82
2023/08/24 13:56:16;;;;;;;4.38;2.80;;;;;;;;;;5055253;28;20027;-83
2023/08/24 13:58:41;;;;;;;4.65;3.05;;;;;;;;;;5071454;28;20074;-83
2023/08/24 14:01:08;;;;;;;5.35;2.70;;;;;;;;;;5055197;28;20127;-83
2023/08/24 14:03:34;;;;;;;3.28;2.63;;;;;;;;;;5067015;28;20020;-82
2023/08/24 14:06:00;;;;;;;5.15;2.92;;;;;;;;;;5075586;28;20503;-83
2023/08/24 14:08:25;;;;;;;5.72;3.08;;;;;;;;;;5075232;28;20119;-82
2023/08/24 14:10:52;;;;;;;6.43;2.58;;;;;;;;;;5085087;28;20487;-83
2023/08/24 14:13:17;;;;;;;3.88;2.70;;;;;;;;;;5087827;28;20103;-83
2023/08/24 14:15:43;;;;;;;5.03;2.80;;;;;;;;;;5076476;28;20056;-82
2023/08/24 14:18:11;;;;;;;4.78;2.65;;;;;;;;;;5062996;28;20042;-82
2023/08/24 14:20:36;;;;;;;8.65;3.22;;;;;;;;;;5082686;28;20021;-82
2023/08/24 14:23:03;;;;;;;7.28;3.08;;;;;;;;;;5076777;28;20442;-83
2023/08/24 14:25:28;;;;;;;6.57;2.83;;;;;;;;;;5072188;28;20055;-82
2023/08/24 14:27:53;;;;;;;6.15;3.20;;;;;;;;;;5070097;28;20484;-83
2023/08/24 14:30:19;;;;;;;7.28;3.05;;;;;;;;;;5064459;28;20059;-81
2023/08/24 14:32:44;;;;;;;3.63;2.83;;;;;;;;;;5094703;28;20051;-83
2023/08/24 14:35:10;;;;;;;9.82;3.05;;;;;;;;;;5079226;28;20036;-82
2023/08/24 14:37:35;;;;;;;3.65;2.50;;;;;;;;;;5056483;28;20017;-83
2023/08/24 14:40:00;;;;;;;5.28;2.70;;;;;;;;;;5050627;28;20055;-82
2023/08/24 14:42:26;;;;;;;5.20;2.58;;;;;;;;;;5073604;28;20162;-82